createdAt,value
2023-05-21T00:01:08.122Z,16.77
2023-05-21T00:03:36.231Z,16.48
2023-05-21T00:06:06.438Z,17.13
2023-05-21T00:08:34.288Z,19.17
2023-05-21T00:11:05.708Z,17.55
2023-05-21T00:13:32.389Z,15.93
2023-05-21T00:15:59.133Z,16.65
2023-05-21T00:18:25.868Z,17.65
2023-05-21T00:20:53.070Z,19.38
2023-05-21T00:23:19.814Z,17.17
2023-05-21T00:25:46.757Z,16.98
2023-05-21T00:28:16.059Z,20.13
2023-05-21T00:30:45.732Z,17.75
2023-05-21T00:33:13.778Z,15.88
2023-05-21T00:35:42.937Z,15.82
2023-05-21T00:38:14.314Z,19.25
2023-05-21T00:40:43.538Z,18.33
2023-05-21T00:43:14.236Z,20.17
2023-05-21T00:45:47.480Z,16.70
2023-05-21T00:48:14.756Z,16.30
2023-05-21T00:50:41.982Z,15.30
2023-05-21T00:53:09.596Z,18.42
2023-05-21T00:55:40.000Z,18.70
2023-05-21T00:58:11.940Z,17.52
2023-05-21T01:00:40.592Z,19.67
2023-05-21T01:03:10.985Z,19.40
2023-05-21T01:05:45.054Z,18.17
2023-05-21T01:08:16.526Z,17.15
2023-05-21T01:10:45.612Z,18.02
2023-05-21T01:13:12.602Z,17.52
2023-05-21T01:15:41.518Z,20.25
2023-05-21T01:18:09.495Z,20.60
2023-05-21T01:20:37.563Z,14.70
2023-05-21T01:23:05.204Z,16.58
2023-05-21T01:25:34.960Z,17.13
2023-05-21T01:28:01.880Z,18.02
2023-05-21T01:30:31.212Z,16.70
2023-05-21T01:33:04.215Z,17.35
2023-05-21T01:35:35.924Z,17.05
2023-05-21T01:38:31.156Z,17.17
2023-05-21T01:41:06.609Z,15.50
2023-05-21T01:43:39.936Z,17.50
2023-05-21T01:46:10.064Z,17.98
2023-05-21T01:48:37.775Z,16.13
2023-05-21T01:51:06.166Z,13.93
2023-05-21T01:53:32.952Z,15.30
2023-05-21T01:56:00.690Z,14.32
2023-05-21T01:58:29.807Z,11.30
2023-05-21T02:00:58.975Z,15.40
2023-05-21T02:03:30.949Z,13.52
2023-05-21T02:06:00.448Z,12.25
2023-05-21T02:08:27.916Z,13.05
2023-05-21T02:10:54.651Z,14.18
2023-05-21T02:13:25.006Z,15.18
2023-05-21T02:15:54.579Z,13.95
2023-05-21T02:18:21.830Z,13.80
2023-05-21T02:20:50.888Z,15.18
2023-05-21T02:23:17.623Z,13.48
2023-05-21T02:25:44.323Z,13.65
2023-05-21T02:28:14.181Z,12.50
2023-05-21T02:30:45.606Z,14.77
2023-05-21T02:33:15.403Z,13.25
2023-05-21T02:35:42.149Z,14.10
2023-05-21T02:38:09.163Z,14.43
2023-05-21T02:40:35.919Z,14.60
2023-05-21T02:43:02.605Z,12.20
2023-05-21T02:45:30.139Z,13.13
2023-05-21T02:48:01.442Z,13.55
2023-05-21T02:50:30.628Z,13.60
2023-05-21T02:52:57.385Z,13.25
2023-05-21T02:55:24.083Z,13.68
2023-05-21T02:57:52.950Z,15.45
2023-05-21T03:00:21.866Z,12.90
2023-05-21T03:02:48.573Z,14.90
2023-05-21T03:05:17.558Z,12.88
2023-05-21T03:07:44.244Z,13.63
2023-05-21T03:10:13.518Z,15.43
2023-05-21T03:12:40.303Z,14.75
2023-05-21T03:15:09.845Z,14.07
2023-05-21T03:17:36.611Z,15.35
2023-05-21T03:20:05.135Z,14.98
2023-05-21T03:22:31.833Z,15.52
2023-05-21T03:24:58.540Z,13.82
2023-05-21T03:27:27.943Z,13.43
2023-05-21T03:29:55.807Z,13.30
2023-05-21T03:32:25.168Z,14.38
2023-05-21T03:34:51.929Z,15.50
2023-05-21T03:37:18.611Z,13.45
2023-05-21T03:39:47.583Z,13.65
2023-05-21T03:42:16.457Z,14.95
2023-05-21T03:44:43.125Z,15.23
2023-05-21T03:47:12.202Z,15.68
2023-05-21T03:49:38.911Z,14.55
2023-05-21T03:52:08.109Z,12.68
2023-05-21T03:54:37.114Z,14.05
2023-05-21T03:57:03.958Z,14.10
2023-05-21T03:59:32.802Z,16.45
2023-05-21T04:02:00.455Z,16.90
2023-05-21T04:04:29.534Z,15.70
2023-05-21T04:06:56.362Z,16.70
2023-05-21T04:09:23.130Z,14.23
2023-05-21T04:11:52.182Z,16.90
2023-05-21T04:14:23.267Z,17.75
2023-05-21T04:16:50.023Z,15.75
2023-05-21T04:19:16.788Z,14.88
2023-05-21T04:21:46.101Z,13.07
2023-05-21T04:24:14.913Z,19.42
2023-05-21T04:26:44.584Z,14.30
2023-05-21T04:29:11.483Z,15.90
2023-05-21T04:31:42.732Z,13.75
2023-05-21T04:34:17.762Z,16.65
2023-05-21T04:36:47.515Z,15.07
2023-05-21T04:39:17.077Z,14.80
2023-05-21T04:41:44.273Z,13.32
2023-05-21T04:44:10.976Z,16.00
2023-05-21T04:46:41.800Z,15.20
2023-05-21T04:49:11.551Z,13.30
2023-05-21T04:51:38.226Z,16.08
2023-05-21T04:54:04.908Z,17.33
2023-05-21T04:56:31.950Z,14.48
2023-05-21T04:58:58.913Z,14.18
2023-05-21T05:01:32.260Z,13.07
2023-05-21T05:03:59.042Z,13.52
2023-05-21T05:06:28.151Z,14.30
2023-05-21T05:08:54.821Z,13.77
2023-05-21T05:11:23.982Z,16.15
2023-05-21T05:13:50.847Z,15.93
2023-05-21T05:16:25.006Z,13.13
2023-05-21T05:18:57.352Z,15.07
2023-05-21T05:21:24.163Z,13.98
2023-05-21T05:23:53.058Z,14.93
2023-05-21T05:26:22.572Z,12.27
2023-05-21T05:28:49.318Z,13.60
2023-05-21T05:31:16.269Z,12.30
2023-05-21T05:33:43.007Z,13.95
2023-05-21T05:36:11.947Z,12.40
2023-05-21T05:38:38.614Z,14.68
2023-05-21T05:41:05.448Z,12.60
2023-05-21T05:43:36.648Z,11.65
2023-05-21T05:46:03.459Z,14.35
2023-05-21T05:48:32.382Z,13.52
2023-05-21T05:51:01.745Z,10.63
2023-05-21T05:53:28.574Z,11.88
2023-05-21T05:55:55.452Z,12.27
2023-05-21T05:58:22.133Z,13.02
2023-05-21T06:00:48.820Z,13.90
2023-05-21T06:03:15.637Z,10.95
2023-05-21T06:05:44.942Z,12.48
2023-05-21T06:08:14.036Z,11.20
2023-05-21T06:10:40.812Z,12.63
2023-05-21T06:13:07.503Z,12.38
2023-05-21T06:15:36.898Z,13.75
2023-05-21T06:18:06.284Z,10.77
2023-05-21T06:20:35.421Z,14.73
2023-05-21T06:23:02.110Z,12.60
2023-05-21T06:25:28.786Z,12.70
2023-05-21T06:27:57.809Z,10.23
2023-05-21T06:30:24.472Z,12.25
2023-05-21T06:32:53.657Z,11.18
2023-05-21T06:35:20.548Z,10.50
2023-05-21T06:37:48.598Z,14.85
2023-05-21T06:40:20.541Z,14.40
2023-05-21T06:42:47.240Z,11.90
2023-05-21T06:45:18.700Z,11.93
2023-05-21T06:47:45.428Z,11.30
2023-05-21T06:50:12.239Z,10.80
2023-05-21T06:52:41.430Z,14.45
2023-05-21T06:55:08.616Z,11.30
2023-05-21T06:57:35.367Z,10.88
2023-05-21T07:00:02.076Z,12.63
2023-05-21T07:02:28.894Z,13.38
2023-05-21T07:04:58.055Z,11.80
2023-05-21T07:07:24.738Z,13.27
2023-05-21T07:09:51.424Z,12.00
2023-05-21T07:12:18.110Z,11.80
2023-05-21T07:14:44.817Z,12.20
2023-05-21T07:17:13.974Z,11.20
2023-05-21T07:19:43.158Z,12.15
2023-05-21T07:22:09.928Z,11.07
2023-05-21T07:24:39.023Z,10.32
2023-05-21T07:27:17.758Z,11.93
2023-05-21T07:29:51.898Z,14.45
2023-05-21T07:32:18.566Z,12.73
2023-05-21T07:34:45.250Z,10.57
2023-05-21T07:37:12.134Z,10.65
2023-05-21T07:39:41.402Z,12.98
2023-05-21T07:42:08.102Z,11.93
2023-05-21T07:44:37.316Z,12.48
2023-05-21T07:47:04.381Z,14.68
2023-05-21T07:49:31.069Z,10.52
2023-05-21T07:52:00.019Z,12.95
2023-05-21T07:54:26.750Z,11.85
2023-05-21T07:56:58.428Z,12.10
2023-05-21T07:59:25.463Z,12.35
2023-05-21T08:01:54.865Z,13.48
2023-05-21T08:04:21.841Z,12.85
2023-05-21T08:06:51.273Z,12.82
2023-05-21T08:09:20.517Z,13.57
2023-05-21T08:11:51.850Z,13.38
2023-05-21T08:14:20.709Z,13.50
2023-05-21T08:16:47.588Z,10.63
2023-05-21T08:19:16.755Z,12.43
2023-05-21T08:21:48.969Z,12.20
2023-05-21T08:24:17.002Z,13.90
2023-05-21T08:26:49.551Z,12.13
2023-05-21T08:29:16.348Z,13.95
2023-05-21T08:31:43.112Z,15.00
2023-05-21T08:34:12.082Z,13.10
2023-05-21T08:36:43.112Z,12.35
2023-05-21T08:39:13.050Z,14.40
2023-05-21T08:41:41.357Z,12.75
2023-05-21T08:44:12.231Z,12.75
2023-05-21T08:46:41.194Z,12.82
2023-05-21T08:49:12.740Z,15.77
2023-05-21T08:51:41.983Z,12.32
2023-05-21T08:54:16.941Z,12.43
2023-05-21T08:56:47.012Z,13.77
2023-05-21T08:59:15.096Z,14.02
2023-05-21T09:01:42.427Z,14.55
2023-05-21T09:04:20.145Z,16.83
2023-05-21T09:06:47.857Z,14.00
2023-05-21T09:09:33.656Z,13.80
2023-05-21T09:12:00.907Z,13.68
2023-05-21T09:14:28.330Z,13.52
2023-05-21T09:16:59.893Z,14.20
2023-05-21T09:19:30.227Z,15.95
2023-05-21T09:22:03.720Z,15.07
2023-05-21T09:24:36.611Z,15.82
2023-05-21T09:27:09.047Z,11.52
2023-05-21T09:29:36.062Z,14.45
2023-05-21T09:32:09.139Z,14.20
2023-05-21T09:34:38.862Z,13.60
2023-05-21T09:37:19.842Z,16.02
2023-05-21T09:39:56.343Z,12.27
2023-05-21T09:42:23.132Z,12.88
2023-05-21T09:44:49.924Z,13.45
2023-05-21T09:47:20.256Z,15.02
2023-05-21T09:49:49.222Z,13.95
2023-05-21T09:52:26.310Z,12.70
2023-05-21T09:55:02.259Z,12.15
2023-05-21T09:57:29.612Z,14.13
2023-05-21T09:59:58.926Z,12.60
2023-05-21T10:02:28.511Z,12.30
2023-05-21T10:04:57.036Z,15.98
2023-05-21T10:07:27.281Z,11.73
2023-05-21T10:09:58.103Z,14.95
2023-05-21T10:12:32.776Z,15.13
2023-05-21T10:15:04.488Z,12.00
2023-05-21T10:17:33.681Z,13.00
2023-05-21T10:20:01.624Z,14.90
2023-05-21T10:22:31.094Z,11.73
2023-05-21T10:25:01.162Z,12.35
2023-05-21T10:27:33.093Z,12.50
2023-05-21T10:30:02.740Z,15.45
2023-05-21T10:32:31.315Z,14.02
2023-05-21T10:35:00.066Z,13.23
2023-05-21T10:37:28.918Z,14.48
2023-05-21T10:39:56.306Z,15.07
2023-05-21T10:42:31.931Z,11.95
2023-05-21T10:45:26.879Z,13.80
2023-05-21T10:48:15.266Z,13.52
2023-05-21T10:50:57.904Z,16.20
2023-05-21T10:54:02.187Z,14.07
2023-05-21T10:56:50.436Z,13.23
2023-05-21T10:59:40.137Z,12.77
2023-05-21T11:02:07.851Z,14.05
2023-05-21T11:04:39.658Z,13.85
2023-05-21T11:07:08.732Z,16.00
2023-05-21T11:09:35.668Z,12.50
2023-05-21T11:12:04.623Z,12.43
2023-05-21T11:14:42.800Z,13.02
2023-05-21T11:17:11.977Z,15.55
2023-05-21T11:19:47.392Z,13.05
2023-05-21T11:22:24.105Z,13.15
2023-05-21T11:24:52.024Z,15.35
2023-05-21T11:27:33.072Z,14.10
2023-05-21T11:30:10.579Z,15.07
2023-05-21T11:33:01.359Z,12.55
2023-05-21T11:35:28.303Z,15.57
2023-05-21T11:37:54.989Z,12.95
2023-05-21T11:40:26.617Z,13.15
2023-05-21T11:42:57.242Z,13.32
2023-05-21T11:45:31.592Z,13.50
2023-05-21T11:47:58.648Z,12.57
2023-05-21T11:50:25.866Z,9.52
2023-05-21T11:52:55.118Z,12.95
2023-05-21T11:55:24.929Z,12.43
2023-05-21T11:57:54.044Z,12.68
2023-05-21T12:00:21.584Z,10.93
2023-05-21T12:02:53.330Z,12.20
2023-05-21T12:05:20.888Z,11.00
2023-05-21T12:07:50.977Z,10.13
2023-05-21T12:10:25.986Z,11.05
2023-05-21T12:12:56.926Z,9.45
2023-05-21T12:15:28.164Z,10.30
2023-05-21T12:17:55.414Z,9.25
2023-05-21T12:20:26.174Z,14.80
2023-05-21T12:22:53.085Z,11.20
2023-05-21T12:25:22.890Z,12.73
2023-05-21T12:27:52.561Z,11.98
2023-05-21T12:30:22.217Z,10.13
2023-05-21T12:32:49.325Z,10.15
2023-05-21T12:35:25.108Z,9.63
2023-05-21T12:37:52.459Z,11.00
2023-05-21T12:40:22.745Z,14.02
2023-05-21T12:42:52.031Z,8.80
2023-05-21T12:45:22.671Z,10.30
2023-05-21T12:47:50.560Z,10.05
2023-05-21T12:50:22.968Z,8.27
2023-05-21T12:52:51.839Z,9.55
2023-05-21T12:55:18.635Z,10.23
2023-05-21T12:57:45.591Z,7.40
2023-05-21T13:00:15.013Z,11.07
2023-05-21T13:02:45.813Z,7.95
2023-05-21T13:05:17.542Z,9.82
2023-05-21T13:07:46.804Z,8.15
2023-05-21T13:10:16.801Z,7.43
2023-05-21T13:12:46.112Z,7.80
2023-05-21T13:15:12.970Z,7.88
2023-05-21T13:17:41.963Z,11.40
2023-05-21T13:20:27.402Z,8.38
2023-05-21T13:22:57.123Z,8.13
2023-05-21T13:25:30.013Z,9.93
2023-05-21T13:28:04.422Z,8.63
2023-05-21T13:30:33.140Z,7.50
2023-05-21T13:33:00.120Z,9.60
2023-05-21T13:35:27.184Z,8.07
2023-05-21T13:37:54.228Z,10.40
2023-05-21T13:40:22.010Z,10.57
2023-05-21T13:42:51.908Z,10.25
2023-05-21T13:45:19.972Z,11.02
2023-05-21T13:47:50.057Z,12.77
2023-05-21T13:50:17.065Z,8.80
2023-05-21T13:52:43.898Z,11.05
2023-05-21T13:55:10.725Z,10.27
2023-05-21T13:57:40.609Z,10.27
2023-05-21T14:00:12.629Z,9.45
2023-05-21T14:02:43.947Z,11.85
2023-05-21T14:05:11.691Z,9.48
2023-05-21T14:07:39.821Z,8.85
2023-05-21T14:10:09.237Z,8.40
2023-05-21T14:12:38.737Z,8.48
2023-05-21T14:15:06.596Z,12.10
2023-05-21T14:17:35.952Z,8.88
2023-05-21T14:20:02.954Z,10.32
2023-05-21T14:22:29.641Z,10.18
2023-05-21T14:24:56.420Z,7.75
2023-05-21T14:27:23.135Z,9.70
2023-05-21T14:29:52.029Z,9.75
2023-05-21T14:32:19.245Z,8.32
2023-05-21T14:34:45.993Z,9.02
2023-05-21T14:37:14.942Z,8.30
2023-05-21T14:39:44.094Z,8.40
2023-05-21T14:42:10.899Z,8.13
2023-05-21T14:44:39.905Z,10.43
2023-05-21T14:47:06.579Z,8.68
2023-05-21T14:49:37.983Z,8.13
2023-05-21T14:52:05.039Z,7.82
2023-05-21T14:54:34.000Z,9.27
2023-05-21T14:57:02.988Z,8.07
2023-05-21T14:59:31.927Z,9.43
2023-05-21T15:01:58.801Z,8.27
2023-05-21T15:04:27.808Z,10.45
2023-05-21T15:06:59.169Z,10.48
2023-05-21T15:09:28.036Z,7.82
2023-05-21T15:11:56.995Z,10.43
2023-05-21T15:14:23.702Z,9.02
2023-05-21T15:16:50.512Z,7.88
2023-05-21T15:19:17.603Z,10.20
2023-05-21T15:21:44.399Z,7.88
2023-05-21T15:24:11.523Z,8.95
2023-05-21T15:26:38.251Z,11.23
2023-05-21T15:29:07.427Z,7.82
2023-05-21T15:31:34.177Z,8.80
2023-05-21T15:34:03.363Z,11.35
2023-05-21T15:36:30.479Z,9.05
2023-05-21T15:38:57.168Z,8.90
2023-05-21T15:41:23.953Z,11.13
2023-05-21T15:43:53.020Z,9.35
2023-05-21T15:46:22.069Z,9.02
2023-05-21T15:48:53.512Z,8.93
2023-05-21T15:51:20.298Z,11.32
2023-05-21T15:53:47.001Z,11.25
2023-05-21T15:56:22.021Z,9.77
2023-05-21T15:58:49.945Z,12.68
2023-05-21T16:01:16.836Z,9.75
2023-05-21T16:03:46.098Z,9.40
2023-05-21T16:06:15.159Z,10.38
2023-05-21T16:08:44.359Z,11.65
2023-05-21T16:11:13.269Z,10.60
2023-05-21T16:13:40.067Z,11.70
2023-05-21T16:16:07.057Z,10.23
2023-05-21T16:18:36.213Z,12.93
2023-05-21T16:21:03.097Z,12.73
2023-05-21T16:23:29.825Z,11.38
2023-05-21T16:25:56.583Z,10.55
2023-05-21T16:28:24.362Z,11.38
2023-05-21T16:30:51.823Z,13.48
2023-05-21T16:33:21.644Z,9.27
2023-05-21T16:35:48.359Z,11.40
2023-05-21T16:38:19.439Z,11.55
2023-05-21T16:40:47.107Z,10.98
2023-05-21T16:43:16.190Z,12.60
2023-05-21T16:45:48.814Z,12.20
2023-05-21T16:48:17.955Z,11.68
2023-05-21T16:50:47.069Z,10.88
2023-05-21T16:53:13.849Z,15.02
2023-05-21T16:55:43.257Z,10.52
2023-05-21T16:58:10.898Z,10.50
2023-05-21T17:00:37.672Z,12.00
2023-05-21T17:03:09.871Z,11.43
2023-05-21T17:05:36.951Z,12.38
2023-05-21T17:08:04.111Z,11.77
2023-05-21T17:10:36.196Z,12.48
2023-05-21T17:13:18.264Z,11.68
2023-05-21T17:15:47.994Z,12.57
2023-05-21T17:18:14.708Z,14.43
2023-05-21T17:20:44.475Z,13.88
2023-05-21T17:23:13.838Z,12.25
2023-05-21T17:25:43.170Z,12.38
2023-05-21T17:28:10.002Z,13.32
2023-05-21T17:30:36.695Z,14.25
2023-05-21T17:33:03.874Z,14.48
2023-05-21T17:35:30.824Z,12.65
2023-05-21T17:37:57.630Z,13.80
2023-05-21T17:40:25.022Z,12.80
2023-05-21T17:42:54.580Z,14.57
2023-05-21T17:45:21.355Z,12.93
2023-05-21T17:47:48.191Z,14.38
2023-05-21T17:50:15.489Z,13.35
2023-05-21T17:52:42.184Z,14.68
2023-05-21T17:55:09.135Z,13.80
2023-05-21T17:57:36.193Z,13.27
2023-05-21T18:00:05.082Z,13.73
2023-05-21T18:02:31.933Z,14.60
2023-05-21T18:04:58.685Z,14.52
2023-05-21T18:07:25.625Z,16.33
2023-05-21T18:09:52.405Z,15.82
2023-05-21T18:12:19.152Z,16.50
2023-05-21T18:14:46.033Z,16.77
2023-05-21T18:17:13.047Z,14.65
2023-05-21T18:19:39.775Z,15.95
2023-05-21T18:22:06.760Z,18.65
2023-05-21T18:24:33.822Z,16.48
2023-05-21T18:27:00.580Z,19.02
2023-05-21T18:29:27.290Z,19.08
2023-05-21T18:31:56.596Z,15.25
2023-05-21T18:34:23.342Z,16.15
2023-05-21T18:36:54.422Z,17.50
2023-05-21T18:39:24.812Z,19.77
2023-05-21T18:42:11.447Z,19.95
2023-05-21T18:44:45.900Z,21.25
2023-05-21T18:47:13.591Z,21.83
2023-05-21T18:49:40.312Z,18.98
2023-05-21T18:52:09.629Z,21.88
2023-05-21T18:54:38.852Z,18.20
2023-05-21T18:57:10.494Z,17.02
2023-05-21T18:59:40.681Z,17.52
2023-05-21T19:02:10.125Z,16.23
2023-05-21T19:04:39.300Z,16.15
2023-05-21T19:07:05.994Z,16.73
2023-05-21T19:09:32.769Z,14.60
2023-05-21T19:12:00.918Z,11.85
2023-05-21T19:14:27.620Z,13.25
2023-05-21T19:16:54.488Z,11.73
2023-05-21T19:19:21.386Z,10.82
2023-05-21T19:21:50.634Z,9.57
2023-05-21T19:24:17.393Z,11.05
2023-05-21T19:26:44.122Z,9.25
2023-05-21T19:29:13.282Z,10.55
2023-05-21T19:31:42.728Z,7.57
2023-05-21T19:34:11.728Z,9.05
2023-05-21T19:36:52.155Z,9.40
2023-05-21T19:39:20.318Z,10.45
2023-05-21T19:41:52.745Z,9.40
2023-05-21T19:44:19.461Z,9.57
2023-05-21T19:46:46.159Z,8.43
2023-05-21T19:49:14.495Z,8.32
2023-05-21T19:51:43.861Z,8.40
2023-05-21T19:54:10.574Z,8.82
2023-05-21T19:56:37.273Z,13.02
2023-05-21T19:59:06.528Z,10.55
2023-05-21T20:01:39.954Z,8.05
2023-05-21T20:04:12.589Z,10.27
2023-05-21T20:06:39.577Z,7.35
2023-05-21T20:09:07.235Z,8.55
2023-05-21T20:11:34.520Z,9.18
2023-05-21T20:14:02.227Z,10.13
2023-05-21T20:16:31.354Z,8.07
2023-05-21T20:19:01.615Z,9.35
2023-05-21T20:21:30.279Z,8.45
2023-05-21T20:23:56.980Z,10.25
2023-05-21T20:26:25.987Z,13.07
2023-05-21T20:28:55.136Z,8.95
2023-05-21T20:31:25.270Z,11.20
2023-05-21T20:33:54.424Z,9.95
2023-05-21T20:36:21.273Z,7.78
2023-05-21T20:38:48.262Z,9.70
2023-05-21T20:41:14.981Z,11.43
2023-05-21T20:43:46.322Z,11.27
2023-05-21T20:46:13.504Z,10.10
2023-05-21T20:48:41.692Z,9.45
2023-05-21T20:51:11.096Z,11.07
2023-05-21T20:53:40.062Z,14.93
2023-05-21T20:56:11.561Z,13.05
2023-05-21T20:58:39.833Z,14.30
2023-05-21T21:01:10.575Z,17.85
2023-05-21T21:03:37.517Z,15.27
2023-05-21T21:06:06.371Z,15.82
2023-05-21T21:08:35.300Z,14.80
2023-05-21T21:11:04.249Z,13.80
2023-05-21T21:13:30.951Z,16.17
2023-05-21T21:15:57.692Z,19.17
2023-05-21T21:18:24.388Z,19.65
2023-05-21T21:20:53.364Z,20.33
2023-05-21T21:23:25.807Z,18.77
2023-05-21T21:25:52.495Z,21.45
2023-05-21T21:28:23.540Z,20.95
2023-05-21T21:30:50.308Z,23.08
2023-05-21T21:33:19.311Z,21.08
2023-05-21T21:35:46.530Z,18.13
2023-05-21T21:38:15.845Z,21.25
2023-05-21T21:40:42.531Z,21.95
2023-05-21T21:43:09.320Z,21.20
2023-05-21T21:45:38.516Z,22.35
2023-05-21T21:48:05.817Z,21.25
2023-05-21T21:50:32.586Z,24.17
2023-05-21T21:52:59.956Z,25.55
2023-05-21T21:55:26.922Z,22.75
2023-05-21T21:57:53.655Z,27.17
2023-05-21T22:00:20.966Z,24.02
2023-05-21T22:02:47.727Z,23.85
2023-05-21T22:05:19.263Z,26.35
2023-05-21T22:07:46.816Z,25.00
2023-05-21T22:10:19.662Z,24.77
2023-05-21T22:12:46.826Z,27.13
2023-05-21T22:15:28.398Z,30.73
2023-05-21T22:17:55.623Z,33.85
2023-05-21T22:20:22.616Z,34.05
2023-05-21T22:22:53.553Z,38.17
2023-05-21T22:25:23.828Z,32.13
2023-05-21T22:27:51.149Z,31.92
2023-05-21T22:30:19.354Z,34.58
2023-05-21T22:32:49.476Z,31.35
2023-05-21T22:35:16.244Z,34.85
2023-05-21T22:37:45.463Z,35.67
2023-05-21T22:40:12.444Z,35.03
2023-05-21T22:42:39.344Z,33.58
2023-05-21T22:45:11.797Z,32.78
2023-05-21T22:47:40.695Z,33.33
2023-05-21T22:50:10.672Z,37.92
2023-05-21T22:52:43.468Z,38.42
2023-05-21T22:55:11.558Z,36.35
2023-05-21T22:57:40.510Z,34.47
2023-05-21T23:00:10.674Z,41.10
2023-05-21T23:02:39.954Z,39.40
2023-05-21T23:05:06.869Z,35.95
2023-05-21T23:07:35.855Z,41.70
2023-05-21T23:10:02.791Z,36.58
2023-05-21T23:12:34.169Z,40.80
2023-05-21T23:15:07.238Z,40.53
2023-05-21T23:17:34.018Z,40.58
2023-05-21T23:20:00.814Z,35.78
2023-05-21T23:22:27.508Z,32.40
2023-05-21T23:24:56.440Z,38.85
2023-05-21T23:27:23.186Z,36.33
2023-05-21T23:29:52.074Z,32.78
2023-05-21T23:32:23.536Z,33.55
2023-05-21T23:34:50.554Z,35.55
2023-05-21T23:37:17.275Z,35.78
2023-05-21T23:39:47.922Z,30.10
2023-05-21T23:42:17.323Z,32.95
2023-05-21T23:44:44.227Z,32.42
2023-05-21T23:47:10.978Z,32.70
2023-05-21T23:49:37.755Z,34.03
2023-05-21T23:52:07.307Z,35.20
2023-05-21T23:54:34.047Z,35.60
2023-05-21T23:57:03.051Z,37.47
2023-05-21T23:59:29.869Z,32.13
